sensor_id;sensor_type;location;lat;lon;timestamp;P1;durP1;ratioP1;P2;durP2;ratioP2
9374;SDS011;4727;51.202;6.344;2023-09-08T00:01:26;4.00;;;3.60;;
9374;SDS011;4727;51.202;6.344;2023-09-08T00:03:52;4.77;;;3.90;;
9374;SDS011;4727;51.202;6.344;2023-09-08T00:06:17;3.77;;;3.47;;
9374;SDS011;4727;51.202;6.344;2023-09-08T00:08:43;4.07;;;3.60;;
9374;SDS011;4727;51.202;6.344;2023-09-08T00:11:09;4.10;;;3.70;;
9374;SDS011;4727;51.202;6.344;2023-09-08T00:13:35;3.83;;;3.53;;
9374;SDS011;4727;51.202;6.344;2023-09-08T00:16:01;5.03;;;3.50;;
9374;SDS011;4727;51.202;6.344;2023-09-08T00:18:26;3.83;;;3.43;;
9374;SDS011;4727;51.202;6.344;2023-09-08T00:20:52;5.17;;;3.80;;
9374;SDS011;4727;51.202;6.344;2023-09-08T00:23:18;6.32;;;3.13;;
9374;SDS011;4727;51.202;6.344;2023-09-08T00:25:43;3.40;;;3.10;;
9374;SDS011;4727;51.202;6.344;2023-09-08T00:28:09;3.67;;;3.37;;
9374;SDS011;4727;51.202;6.344;2023-09-08T00:30:35;3.57;;;3.27;;
9374;SDS011;4727;51.202;6.344;2023-09-08T00:33:00;4.68;;;3.00;;
9374;SDS011;4727;51.202;6.344;2023-09-08T00:35:26;7.20;;;3.80;;
9374;SDS011;4727;51.202;6.344;2023-09-08T00:37:52;7.20;;;3.85;;
9374;SDS011;4727;51.202;6.344;2023-09-08T00:40:18;5.63;;;4.07;;
9374;SDS011;4727;51.202;6.344;2023-09-08T00:42:44;4.13;;;3.38;;
9374;SDS011;4727;51.202;6.344;2023-09-08T00:45:10;6.35;;;3.50;;
9374;SDS011;4727;51.202;6.344;2023-09-08T00:47:36;4.40;;;3.97;;
9374;SDS011;4727;51.202;6.344;2023-09-08T00:50:03;4.73;;;3.40;;
9374;SDS011;4727;51.202;6.344;2023-09-08T00:52:30;4.13;;;2.95;;
9374;SDS011;4727;51.202;6.344;2023-09-08T00:54:57;4.00;;;3.55;;
9374;SDS011;4727;51.202;6.344;2023-09-08T00:57:24;3.25;;;2.97;;
9374;SDS011;4727;51.202;6.344;2023-09-08T00:59:49;3.13;;;2.93;;
9374;SDS011;4727;51.202;6.344;2023-09-08T01:02:15;4.97;;;3.60;;
9374;SDS011;4727;51.202;6.344;2023-09-08T01:04:41;4.07;;;3.60;;
9374;SDS011;4727;51.202;6.344;2023-09-08T01:07:08;5.25;;;3.30;;
9374;SDS011;4727;51.202;6.344;2023-09-08T01:09:35;3.97;;;3.60;;
9374;SDS011;4727;51.202;6.344;2023-09-08T01:12:05;4.63;;;3.57;;
9374;SDS011;4727;51.202;6.344;2023-09-08T01:14:32;3.67;;;3.37;;
9374;SDS011;4727;51.202;6.344;2023-09-08T01:16:58;6.27;;;3.87;;
9374;SDS011;4727;51.202;6.344;2023-09-08T01:19:24;4.00;;;3.67;;
9374;SDS011;4727;51.202;6.344;2023-09-08T01:24:38;4.30;;;3.90;;
9374;SDS011;4727;51.202;6.344;2023-09-08T01:27:28;3.87;;;3.50;;
9374;SDS011;4727;51.202;6.344;2023-09-08T01:29:57;3.80;;;3.50;;
9374;SDS011;4727;51.202;6.344;2023-09-08T01:32:25;4.50;;;4.00;;
9374;SDS011;4727;51.202;6.344;2023-09-08T01:34:51;3.47;;;3.27;;
9374;SDS011;4727;51.202;6.344;2023-09-08T01:37:17;4.30;;;3.90;;
9374;SDS011;4727;51.202;6.344;2023-09-08T01:39:43;3.57;;;3.33;;
9374;SDS011;4727;51.202;6.344;2023-09-08T01:42:09;5.73;;;3.47;;
9374;SDS011;4727;51.202;6.344;2023-09-08T01:44:35;3.47;;;3.22;;
9374;SDS011;4727;51.202;6.344;2023-09-08T01:47:01;3.83;;;3.53;;
9374;SDS011;4727;51.202;6.344;2023-09-08T01:49:27;4.03;;;3.65;;
9374;SDS011;4727;51.202;6.344;2023-09-08T01:51:53;5.45;;;4.10;;
9374;SDS011;4727;51.202;6.344;2023-09-08T01:54:19;4.40;;;4.05;;
9374;SDS011;4727;51.202;6.344;2023-09-08T01:56:45;4.20;;;3.77;;
9374;SDS011;4727;51.202;6.344;2023-09-08T01:59:11;7.10;;;3.97;;
9374;SDS011;4727;51.202;6.344;2023-09-08T02:01:37;4.03;;;3.70;;
9374;SDS011;4727;51.202;6.344;2023-09-08T02:04:03;6.03;;;4.03;;
9374;SDS011;4727;51.202;6.344;2023-09-08T02:06:29;6.60;;;3.63;;
9374;SDS011;4727;51.202;6.344;2023-09-08T02:08:55;4.00;;;3.60;;
9374;SDS011;4727;51.202;6.344;2023-09-08T02:11:21;4.47;;;4.05;;
9374;SDS011;4727;51.202;6.344;2023-09-08T02:13:46;4.60;;;3.87;;
9374;SDS011;4727;51.202;6.344;2023-09-08T02:16:13;4.43;;;4.05;;
9374;SDS011;4727;51.202;6.344;2023-09-08T02:18:39;6.40;;;5.30;;
9374;SDS011;4727;51.202;6.344;2023-09-08T02:21:08;3.97;;;3.50;;
9374;SDS011;4727;51.202;6.344;2023-09-08T02:23:33;6.50;;;4.17;;
9374;SDS011;4727;51.202;6.344;2023-09-08T02:25:59;4.90;;;4.17;;
9374;SDS011;4727;51.202;6.344;2023-09-08T02:28:25;4.27;;;3.97;;
9374;SDS011;4727;51.202;6.344;2023-09-08T02:30:51;6.47;;;5.00;;
9374;SDS011;4727;51.202;6.344;2023-09-08T02:33:17;4.40;;;3.93;;
9374;SDS011;4727;51.202;6.344;2023-09-08T02:35:43;9.07;;;4.50;;
9374;SDS011;4727;51.202;6.344;2023-09-08T02:38:09;4.87;;;4.43;;
9374;SDS011;4727;51.202;6.344;2023-09-08T02:40:35;5.10;;;4.60;;
9374;SDS011;4727;51.202;6.344;2023-09-08T02:43:01;6.30;;;4.47;;
9374;SDS011;4727;51.202;6.344;2023-09-08T02:45:27;6.57;;;4.67;;
9374;SDS011;4727;51.202;6.344;2023-09-08T02:47:53;4.60;;;3.90;;
9374;SDS011;4727;51.202;6.344;2023-09-08T02:50:19;7.17;;;4.83;;
9374;SDS011;4727;51.202;6.344;2023-09-08T02:52:45;4.73;;;4.23;;
9374;SDS011;4727;51.202;6.344;2023-09-08T02:55:11;5.00;;;3.93;;
9374;SDS011;4727;51.202;6.344;2023-09-08T05:31:24;4.87;;;4.37;;
9374;SDS011;4727;51.202;6.344;2023-09-08T05:33:51;5.87;;;4.73;;
9374;SDS011;4727;51.202;6.344;2023-09-08T05:36:17;5.90;;;4.80;;
9374;SDS011;4727;51.202;6.344;2023-09-08T05:38:42;5.63;;;4.97;;
9374;SDS011;4727;51.202;6.344;2023-09-08T05:41:08;4.90;;;4.40;;
9374;SDS011;4727;51.202;6.344;2023-09-08T05:43:34;5.47;;;4.97;;
9374;SDS011;4727;51.202;6.344;2023-09-08T05:46:00;4.97;;;4.33;;
9374;SDS011;4727;51.202;6.344;2023-09-08T05:48:26;5.43;;;4.93;;
9374;SDS011;4727;51.202;6.344;2023-09-08T05:50:52;5.13;;;4.67;;
9374;SDS011;4727;51.202;6.344;2023-09-08T05:53:18;6.73;;;4.50;;
9374;SDS011;4727;51.202;6.344;2023-09-08T05:55:44;7.40;;;5.33;;
9374;SDS011;4727;51.202;6.344;2023-09-08T05:58:10;5.17;;;4.07;;
9374;SDS011;4727;51.202;6.344;2023-09-08T06:00:35;6.17;;;4.17;;
9374;SDS011;4727;51.202;6.344;2023-09-08T06:03:02;5.53;;;5.00;;
9374;SDS011;4727;51.202;6.344;2023-09-08T06:05:28;8.93;;;5.37;;
9374;SDS011;4727;51.202;6.344;2023-09-08T06:07:54;9.30;;;5.13;;
9374;SDS011;4727;51.202;6.344;2023-09-08T06:10:20;7.90;;;4.93;;
9374;SDS011;4727;51.202;6.344;2023-09-08T06:12:46;9.07;;;5.20;;
9374;SDS011;4727;51.202;6.344;2023-09-08T06:15:15;5.77;;;4.90;;
9374;SDS011;4727;51.202;6.344;2023-09-08T06:17:41;7.10;;;4.73;;
9374;SDS011;4727;51.202;6.344;2023-09-08T06:20:07;6.23;;;5.20;;
9374;SDS011;4727;51.202;6.344;2023-09-08T06:22:33;6.23;;;4.83;;
9374;SDS011;4727;51.202;6.344;2023-09-08T06:24:59;5.27;;;4.77;;
9374;SDS011;4727;51.202;6.344;2023-09-08T06:27:25;6.60;;;4.90;;
9374;SDS011;4727;51.202;6.344;2023-09-08T06:29:51;10.27;;;4.83;;
9374;SDS011;4727;51.202;6.344;2023-09-08T06:32:17;8.30;;;5.30;;
9374;SDS011;4727;51.202;6.344;2023-09-08T06:34:43;6.60;;;4.30;;
9374;SDS011;4727;51.202;6.344;2023-09-08T06:37:10;5.30;;;4.37;;
9374;SDS011;4727;51.202;6.344;2023-09-08T06:39:35;6.00;;;5.00;;
9374;SDS011;4727;51.202;6.344;2023-09-08T06:42:01;7.40;;;4.30;;
9374;SDS011;4727;51.202;6.344;2023-09-08T06:44:27;6.03;;;4.93;;
9374;SDS011;4727;51.202;6.344;2023-09-08T06:46:53;7.70;;;4.93;;
9374;SDS011;4727;51.202;6.344;2023-09-08T06:49:19;5.47;;;4.33;;
9374;SDS011;4727;51.202;6.344;2023-09-08T06:51:45;5.47;;;4.93;;
9374;SDS011;4727;51.202;6.344;2023-09-08T06:54:12;6.10;;;4.53;;
9374;SDS011;4727;51.202;6.344;2023-09-08T06:56:38;4.27;;;3.90;;
9374;SDS011;4727;51.202;6.344;2023-09-08T06:59:04;4.67;;;4.00;;
9374;SDS011;4727;51.202;6.344;2023-09-08T07:01:30;6.00;;;4.43;;
9374;SDS011;4727;51.202;6.344;2023-09-08T07:03:56;8.10;;;4.70;;
9374;SDS011;4727;51.202;6.344;2023-09-08T07:06:22;5.10;;;4.30;;
9374;SDS011;4727;51.202;6.344;2023-09-08T07:08:48;5.60;;;4.30;;
9374;SDS011;4727;51.202;6.344;2023-09-08T07:11:17;5.73;;;4.50;;
9374;SDS011;4727;51.202;6.344;2023-09-08T07:13:43;4.80;;;3.90;;
9374;SDS011;4727;51.202;6.344;2023-09-08T07:16:09;6.80;;;3.93;;
9374;SDS011;4727;51.202;6.344;2023-09-08T07:18:35;4.33;;;3.87;;
9374;SDS011;4727;51.202;6.344;2023-09-08T07:21:02;4.90;;;4.37;;
9374;SDS011;4727;51.202;6.344;2023-09-08T07:23:28;9.33;;;4.60;;
9374;SDS011;4727;51.202;6.344;2023-09-08T07:25:54;5.80;;;4.13;;
9374;SDS011;4727;51.202;6.344;2023-09-08T07:28:20;4.50;;;3.80;;
9374;SDS011;4727;51.202;6.344;2023-09-08T07:30:46;4.97;;;4.40;;
9374;SDS011;4727;51.202;6.344;2023-09-08T07:33:11;3.88;;;3.58;;
9374;SDS011;4727;51.202;6.344;2023-09-08T07:35:37;6.40;;;3.97;;
9374;SDS011;4727;51.202;6.344;2023-09-08T07:38:04;4.40;;;4.00;;
9374;SDS011;4727;51.202;6.344;2023-09-08T07:40:31;5.70;;;4.27;;
9374;SDS011;4727;51.202;6.344;2023-09-08T07:42:57;6.35;;;3.85;;
9374;SDS011;4727;51.202;6.344;2023-09-08T07:45:23;4.73;;;4.13;;
9374;SDS011;4727;51.202;6.344;2023-09-08T07:47:48;5.03;;;4.40;;
9374;SDS011;4727;51.202;6.344;2023-09-08T07:50:21;4.80;;;4.30;;
9374;SDS011;4727;51.202;6.344;2023-09-08T07:52:49;4.68;;;4.25;;
9374;SDS011;4727;51.202;6.344;2023-09-08T07:55:16;5.20;;;4.07;;
9374;SDS011;4727;51.202;6.344;2023-09-08T07:57:42;4.53;;;4.07;;
9374;SDS011;4727;51.202;6.344;2023-09-08T08:00:09;4.72;;;4.03;;
9374;SDS011;4727;51.202;6.344;2023-09-08T08:02:36;4.28;;;3.88;;
9374;SDS011;4727;51.202;6.344;2023-09-08T08:05:02;4.37;;;3.97;;
9374;SDS011;4727;51.202;6.344;2023-09-08T08:07:27;6.40;;;3.92;;
9374;SDS011;4727;51.202;6.344;2023-09-08T08:09:54;4.15;;;3.85;;
9374;SDS011;4727;51.202;6.344;2023-09-08T08:12:20;7.00;;;4.18;;
9374;SDS011;4727;51.202;6.344;2023-09-08T08:14:46;4.53;;;4.00;;
9374;SDS011;4727;51.202;6.344;2023-09-08T08:17:12;3.80;;;3.50;;
9374;SDS011;4727;51.202;6.344;2023-09-08T08:19:38;4.70;;;4.30;;
9374;SDS011;4727;51.202;6.344;2023-09-08T08:22:03;3.90;;;3.55;;
9374;SDS011;4727;51.202;6.344;2023-09-08T08:24:29;6.00;;;4.00;;
9374;SDS011;4727;51.202;6.344;2023-09-08T08:26:55;5.20;;;3.70;;
9374;SDS011;4727;51.202;6.344;2023-09-08T08:29:21;6.32;;;3.50;;
9374;SDS011;4727;51.202;6.344;2023-09-08T08:31:47;4.30;;;3.60;;
9374;SDS011;4727;51.202;6.344;2023-09-08T08:34:12;12.43;;;4.28;;
9374;SDS011;4727;51.202;6.344;2023-09-08T08:36:38;5.72;;;3.97;;
9374;SDS011;4727;51.202;6.344;2023-09-08T08:39:04;4.00;;;3.60;;
9374;SDS011;4727;51.202;6.344;2023-09-08T08:41:30;4.13;;;3.83;;
9374;SDS011;4727;51.202;6.344;2023-09-08T08:43:56;3.97;;;3.67;;
9374;SDS011;4727;51.202;6.344;2023-09-08T08:46:23;4.10;;;3.80;;
9374;SDS011;4727;51.202;6.344;2023-09-08T08:48:49;5.13;;;4.10;;
9374;SDS011;4727;51.202;6.344;2023-09-08T08:51:19;4.40;;;4.00;;
9374;SDS011;4727;51.202;6.344;2023-09-08T08:53:48;5.53;;;3.80;;
9374;SDS011;4727;51.202;6.344;2023-09-08T08:56:13;4.05;;;3.70;;
9374;SDS011;4727;51.202;6.344;2023-09-08T08:58:39;4.20;;;3.80;;
9374;SDS011;4727;51.202;6.344;2023-09-08T09:01:07;4.28;;;3.90;;
9374;SDS011;4727;51.202;6.344;2023-09-08T09:03:33;4.35;;;3.95;;
9374;SDS011;4727;51.202;6.344;2023-09-08T09:06:02;4.38;;;3.97;;
9374;SDS011;4727;51.202;6.344;2023-09-08T09:08:28;3.95;;;3.67;;
9374;SDS011;4727;51.202;6.344;2023-09-08T09:10:55;4.20;;;3.80;;
9374;SDS011;4727;51.202;6.344;2023-09-08T09:13:20;5.53;;;3.80;;
9374;SDS011;4727;51.202;6.344;2023-09-08T09:15:46;3.85;;;3.55;;
9374;SDS011;4727;51.202;6.344;2023-09-08T09:18:15;4.25;;;3.92;;
9374;SDS011;4727;51.202;6.344;2023-09-08T09:20:41;3.92;;;3.65;;
9374;SDS011;4727;51.202;6.344;2023-09-08T09:23:32;4.72;;;4.03;;
9374;SDS011;4727;51.202;6.344;2023-09-08T09:25:59;4.22;;;3.72;;
9374;SDS011;4727;51.202;6.344;2023-09-08T09:28:28;4.90;;;3.47;;
9374;SDS011;4727;51.202;6.344;2023-09-08T09:30:53;4.05;;;3.65;;
9374;SDS011;4727;51.202;6.344;2023-09-08T09:33:19;5.45;;;3.83;;
9374;SDS011;4727;51.202;6.344;2023-09-08T09:35:46;6.60;;;4.10;;
9374;SDS011;4727;51.202;6.344;2023-09-08T09:38:14;4.30;;;3.90;;
9374;SDS011;4727;51.202;6.344;2023-09-08T09:40:40;3.90;;;3.60;;
9374;SDS011;4727;51.202;6.344;2023-09-08T09:43:06;4.65;;;3.95;;
9374;SDS011;4727;51.202;6.344;2023-09-08T09:45:35;4.60;;;4.05;;
9374;SDS011;4727;51.202;6.344;2023-09-08T09:48:02;3.70;;;3.40;;
9374;SDS011;4727;51.202;6.344;2023-09-08T09:50:29;4.32;;;3.47;;
9374;SDS011;4727;51.202;6.344;2023-09-08T09:52:58;3.75;;;3.45;;
9374;SDS011;4727;51.202;6.344;2023-09-08T09:55:28;4.43;;;4.03;;
9374;SDS011;4727;51.202;6.344;2023-09-08T09:57:57;3.75;;;3.45;;
9374;SDS011;4727;51.202;6.344;2023-09-08T10:00:28;4.53;;;4.10;;
9374;SDS011;4727;51.202;6.344;2023-09-08T10:02:55;6.63;;;3.97;;
9374;SDS011;4727;51.202;6.344;2023-09-08T10:05:21;4.65;;;3.67;;
9374;SDS011;4727;51.202;6.344;2023-09-08T10:07:48;4.65;;;3.80;;
9374;SDS011;4727;51.202;6.344;2023-09-08T10:10:15;6.63;;;4.18;;
9374;SDS011;4727;51.202;6.344;2023-09-08T10:12:45;5.35;;;3.70;;
9374;SDS011;4727;51.202;6.344;2023-09-08T10:15:13;6.03;;;4.38;;
9374;SDS011;4727;51.202;6.344;2023-09-08T10:17:45;3.78;;;3.47;;
9374;SDS011;4727;51.202;6.344;2023-09-08T10:20:16;4.63;;;4.00;;
9374;SDS011;4727;51.202;6.344;2023-09-08T10:22:43;4.47;;;4.07;;
9374;SDS011;4727;51.202;6.344;2023-09-08T10:25:10;5.97;;;4.18;;
9374;SDS011;4727;51.202;6.344;2023-09-08T10:27:37;4.18;;;3.88;;
9374;SDS011;4727;51.202;6.344;2023-09-08T10:30:04;4.60;;;3.80;;
9374;SDS011;4727;51.202;6.344;2023-09-08T10:32:35;5.15;;;3.83;;
9374;SDS011;4727;51.202;6.344;2023-09-08T10:35:06;4.65;;;4.22;;
9374;SDS011;4727;51.202;6.344;2023-09-08T10:37:32;4.70;;;4.00;;
9374;SDS011;4727;51.202;6.344;2023-09-08T10:42:48;4.22;;;3.83;;
9374;SDS011;4727;51.202;6.344;2023-09-08T10:45:15;4.07;;;3.65;;
9374;SDS011;4727;51.202;6.344;2023-09-08T10:50:18;3.65;;;3.35;;
9374;SDS011;4727;51.202;6.344;2023-09-08T10:53:06;4.90;;;4.28;;
9374;SDS011;4727;51.202;6.344;2023-09-08T10:55:36;5.25;;;4.07;;
9374;SDS011;4727;51.202;6.344;2023-09-08T10:58:05;4.50;;;4.10;;
9374;SDS011;4727;51.202;6.344;2023-09-08T11:00:42;8.32;;;4.53;;
9374;SDS011;4727;51.202;6.344;2023-09-08T11:03:08;4.60;;;3.78;;
9374;SDS011;4727;51.202;6.344;2023-09-08T11:05:34;4.07;;;3.60;;
9374;SDS011;4727;51.202;6.344;2023-09-08T11:08:00;4.43;;;4.03;;
9374;SDS011;4727;51.202;6.344;2023-09-08T11:10:26;9.38;;;4.00;;
9374;SDS011;4727;51.202;6.344;2023-09-08T11:12:54;4.53;;;4.00;;
9374;SDS011;4727;51.202;6.344;2023-09-08T11:15:19;8.32;;;3.80;;
9374;SDS011;4727;51.202;6.344;2023-09-08T11:17:45;4.40;;;4.00;;
9374;SDS011;4727;51.202;6.344;2023-09-08T11:20:15;4.03;;;3.72;;
9374;SDS011;4727;51.202;6.344;2023-09-08T11:22:41;4.32;;;3.90;;
9374;SDS011;4727;51.202;6.344;2023-09-08T11:25:08;3.80;;;3.40;;
9374;SDS011;4727;51.202;6.344;2023-09-08T11:27:38;3.88;;;3.58;;
9374;SDS011;4727;51.202;6.344;2023-09-08T11:30:09;6.72;;;4.50;;
9374;SDS011;4727;51.202;6.344;2023-09-08T11:32:37;3.47;;;3.28;;
9374;SDS011;4727;51.202;6.344;2023-09-08T15:28:43;4.03;;;3.67;;
9374;SDS011;4727;51.202;6.344;2023-09-08T15:31:09;3.78;;;3.47;;
9374;SDS011;4727;51.202;6.344;2023-09-08T15:33:37;3.90;;;3.58;;
9374;SDS011;4727;51.202;6.344;2023-09-08T15:36:02;3.85;;;3.55;;
9374;SDS011;4727;51.202;6.344;2023-09-08T15:38:28;3.33;;;3.10;;
9374;SDS011;4727;51.202;6.344;2023-09-08T15:43:32;3.60;;;3.30;;
9374;SDS011;4727;51.202;6.344;2023-09-08T15:46:03;4.18;;;3.42;;
9374;SDS011;4727;51.202;6.344;2023-09-08T15:48:29;3.42;;;3.20;;
9374;SDS011;4727;51.202;6.344;2023-09-08T15:50:54;3.50;;;3.30;;
9374;SDS011;4727;51.202;6.344;2023-09-08T15:53:20;4.28;;;3.97;;
9374;SDS011;4727;51.202;6.344;2023-09-08T15:55:45;3.65;;;3.35;;
9374;SDS011;4727;51.202;6.344;2023-09-08T15:58:11;4.00;;;3.70;;
9374;SDS011;4727;51.202;6.344;2023-09-08T16:00:38;3.38;;;3.15;;
9374;SDS011;4727;51.202;6.344;2023-09-08T16:03:03;3.33;;;3.13;;
9374;SDS011;4727;51.202;6.344;2023-09-08T16:05:29;4.18;;;3.88;;
9374;SDS011;4727;51.202;6.344;2023-09-08T16:07:55;3.65;;;3.42;;
9374;SDS011;4727;51.202;6.344;2023-09-08T16:10:21;3.53;;;3.33;;
9374;SDS011;4727;51.202;6.344;2023-09-08T16:12:46;3.60;;;3.40;;
9374;SDS011;4727;51.202;6.344;2023-09-08T16:15:14;3.45;;;3.25;;
9374;SDS011;4727;51.202;6.344;2023-09-08T16:17:40;3.85;;;3.55;;
9374;SDS011;4727;51.202;6.344;2023-09-08T16:20:05;3.58;;;3.38;;
9374;SDS011;4727;51.202;6.344;2023-09-08T16:22:31;3.70;;;3.40;;
9374;SDS011;4727;51.202;6.344;2023-09-08T16:24:57;4.50;;;4.18;;
9374;SDS011;4727;51.202;6.344;2023-09-08T16:27:24;6.93;;;6.32;;
9374;SDS011;4727;51.202;6.344;2023-09-08T16:29:49;10.63;;;8.13;;
9374;SDS011;4727;51.202;6.344;2023-09-08T16:32:15;5.70;;;5.20;;
9374;SDS011;4727;51.202;6.344;2023-09-08T16:34:40;4.72;;;4.20;;
9374;SDS011;4727;51.202;6.344;2023-09-08T16:37:06;3.90;;;3.60;;
9374;SDS011;4727;51.202;6.344;2023-09-08T16:39:33;3.55;;;3.28;;
9374;SDS011;4727;51.202;6.344;2023-09-08T16:41:59;4.13;;;3.60;;
9374;SDS011;4727;51.202;6.344;2023-09-08T16:44:24;4.43;;;4.03;;
9374;SDS011;4727;51.202;6.344;2023-09-08T16:46:52;3.45;;;3.25;;
9374;SDS011;4727;51.202;6.344;2023-09-08T16:49:17;3.80;;;3.50;;
9374;SDS011;4727;51.202;6.344;2023-09-08T16:51:44;4.35;;;3.85;;
9374;SDS011;4727;51.202;6.344;2023-09-08T16:54:09;3.88;;;3.58;;
9374;SDS011;4727;51.202;6.344;2023-09-08T16:56:37;4.55;;;3.60;;
9374;SDS011;4727;51.202;6.344;2023-09-08T16:59:03;4.93;;;3.88;;
9374;SDS011;4727;51.202;6.344;2023-09-08T17:01:29;3.80;;;3.50;;
9374;SDS011;4727;51.202;6.344;2023-09-08T17:03:54;4.80;;;3.80;;
9374;SDS011;4727;51.202;6.344;2023-09-08T17:06:20;3.97;;;3.67;;
9374;SDS011;4727;51.202;6.344;2023-09-08T17:08:46;3.40;;;3.20;;
9374;SDS011;4727;51.202;6.344;2023-09-08T17:11:12;4.25;;;3.38;;
9374;SDS011;4727;51.202;6.344;2023-09-08T17:13:38;4.40;;;3.88;;
9374;SDS011;4727;51.202;6.344;2023-09-08T17:16:04;3.47;;;3.28;;
9374;SDS011;4727;51.202;6.344;2023-09-08T17:18:30;3.88;;;3.63;;
9374;SDS011;4727;51.202;6.344;2023-09-08T17:20:56;3.90;;;3.60;;
9374;SDS011;4727;51.202;6.344;2023-09-08T17:23:22;3.85;;;3.55;;
9374;SDS011;4727;51.202;6.344;2023-09-08T17:25:49;4.00;;;3.67;;
9374;SDS011;4727;51.202;6.344;2023-09-08T17:28:16;3.83;;;3.53;;
9374;SDS011;4727;51.202;6.344;2023-09-08T17:30:42;4.47;;;4.07;;
9374;SDS011;4727;51.202;6.344;2023-09-08T17:33:08;4.88;;;3.83;;
9374;SDS011;4727;51.202;6.344;2023-09-08T17:35:37;4.32;;;4.03;;
9374;SDS011;4727;51.202;6.344;2023-09-08T17:38:03;4.00;;;3.70;;
9374;SDS011;4727;51.202;6.344;2023-09-08T17:40:29;5.07;;;3.50;;
9374;SDS011;4727;51.202;6.344;2023-09-08T17:42:58;4.22;;;3.92;;
9374;SDS011;4727;51.202;6.344;2023-09-08T17:45:24;7.30;;;4.25;;
9374;SDS011;4727;51.202;6.344;2023-09-08T17:47:50;4.00;;;3.70;;
9374;SDS011;4727;51.202;6.344;2023-09-08T17:50:16;4.70;;;4.40;;
9374;SDS011;4727;51.202;6.344;2023-09-08T17:52:42;4.28;;;3.88;;
9374;SDS011;4727;51.202;6.344;2023-09-08T17:55:08;5.13;;;4.72;;
9374;SDS011;4727;51.202;6.344;2023-09-08T17:57:34;4.75;;;4.35;;
9374;SDS011;4727;51.202;6.344;2023-09-08T18:00:00;4.38;;;4.00;;
9374;SDS011;4727;51.202;6.344;2023-09-08T18:02:26;5.45;;;4.95;;
9374;SDS011;4727;51.202;6.344;2023-09-08T18:04:52;4.35;;;3.95;;
9374;SDS011;4727;51.202;6.344;2023-09-08T18:07:18;4.65;;;4.25;;
9374;SDS011;4727;51.202;6.344;2023-09-08T18:09:43;9.13;;;4.63;;
9374;SDS011;4727;51.202;6.344;2023-09-08T18:12:09;9.45;;;5.50;;
9374;SDS011;4727;51.202;6.344;2023-09-08T18:14:35;5.05;;;4.65;;
9374;SDS011;4727;51.202;6.344;2023-09-08T18:17:01;5.57;;;4.88;;
9374;SDS011;4727;51.202;6.344;2023-09-08T18:19:28;7.35;;;5.32;;
9374;SDS011;4727;51.202;6.344;2023-09-08T18:21:54;7.07;;;5.40;;
9374;SDS011;4727;51.202;6.344;2023-09-08T18:24:22;4.95;;;4.43;;
9374;SDS011;4727;51.202;6.344;2023-09-08T18:26:48;5.15;;;4.65;;
9374;SDS011;4727;51.202;6.344;2023-09-08T18:29:14;6.50;;;5.22;;
9374;SDS011;4727;51.202;6.344;2023-09-08T18:31:39;9.90;;;5.78;;
9374;SDS011;4727;51.202;6.344;2023-09-08T18:34:05;8.55;;;6.32;;
9374;SDS011;4727;51.202;6.344;2023-09-08T18:36:31;8.25;;;7.35;;
9374;SDS011;4727;51.202;6.344;2023-09-08T18:38:57;12.02;;;10.07;;
9374;SDS011;4727;51.202;6.344;2023-09-08T18:41:23;15.30;;;11.23;;
9374;SDS011;4727;51.202;6.344;2023-09-08T18:43:49;17.58;;;13.63;;
9374;SDS011;4727;51.202;6.344;2023-09-08T18:46:15;19.15;;;12.07;;
9374;SDS011;4727;51.202;6.344;2023-09-08T18:48:42;16.42;;;12.82;;
9374;SDS011;4727;51.202;6.344;2023-09-08T18:51:08;13.57;;;10.52;;
9374;SDS011;4727;51.202;6.344;2023-09-08T18:53:34;10.27;;;8.40;;
9374;SDS011;4727;51.202;6.344;2023-09-08T18:56:00;9.48;;;7.75;;
9374;SDS011;4727;51.202;6.344;2023-09-08T18:58:28;7.97;;;6.93;;
9374;SDS011;4727;51.202;6.344;2023-09-08T19:00:54;7.63;;;6.47;;
9374;SDS011;4727;51.202;6.344;2023-09-08T19:03:21;7.50;;;6.10;;
9374;SDS011;4727;51.202;6.344;2023-09-08T19:05:47;7.70;;;6.00;;
9374;SDS011;4727;51.202;6.344;2023-09-08T19:08:13;6.70;;;6.07;;
9374;SDS011;4727;51.202;6.344;2023-09-08T19:10:39;6.80;;;4.90;;
9374;SDS011;4727;51.202;6.344;2023-09-08T19:13:04;7.57;;;5.68;;
9374;SDS011;4727;51.202;6.344;2023-09-08T19:15:30;5.80;;;5.30;;
9374;SDS011;4727;51.202;6.344;2023-09-08T19:17:56;8.55;;;5.93;;
9374;SDS011;4727;51.202;6.344;2023-09-08T19:20:22;5.53;;;5.03;;
9374;SDS011;4727;51.202;6.344;2023-09-08T19:22:48;5.43;;;4.93;;
9374;SDS011;4727;51.202;6.344;2023-09-08T19:25:14;6.95;;;5.13;;
9374;SDS011;4727;51.202;6.344;2023-09-08T19:27:40;5.47;;;5.05;;
9374;SDS011;4727;51.202;6.344;2023-09-08T19:30:06;5.47;;;4.97;;
9374;SDS011;4727;51.202;6.344;2023-09-08T19:32:32;5.80;;;5.30;;
9374;SDS011;4727;51.202;6.344;2023-09-08T19:34:58;6.82;;;5.35;;
9374;SDS011;4727;51.202;6.344;2023-09-08T19:37:25;7.15;;;5.78;;
9374;SDS011;4727;51.202;6.344;2023-09-08T19:39:51;6.47;;;5.68;;
9374;SDS011;4727;51.202;6.344;2023-09-08T19:42:17;6.40;;;5.80;;
9374;SDS011;4727;51.202;6.344;2023-09-08T19:44:43;6.20;;;5.60;;
9374;SDS011;4727;51.202;6.344;2023-09-08T19:47:09;6.60;;;5.95;;
9374;SDS011;4727;51.202;6.344;2023-09-08T19:49:39;5.55;;;5.05;;
9374;SDS011;4727;51.202;6.344;2023-09-08T19:52:06;5.93;;;5.28;;
9374;SDS011;4727;51.202;6.344;2023-09-08T19:54:37;6.05;;;5.45;;
9374;SDS011;4727;51.202;6.344;2023-09-08T19:57:03;5.75;;;5.22;;
9374;SDS011;4727;51.202;6.344;2023-09-08T19:59:29;7.45;;;5.72;;
9374;SDS011;4727;51.202;6.344;2023-09-08T20:01:55;5.90;;;5.00;;
9374;SDS011;4727;51.202;6.344;2023-09-08T20:04:21;7.00;;;5.60;;
9374;SDS011;4727;51.202;6.344;2023-09-08T20:06:47;7.70;;;5.15;;
9374;SDS011;4727;51.202;6.344;2023-09-08T20:09:13;6.43;;;5.80;;
9374;SDS011;4727;51.202;6.344;2023-09-08T20:11:39;6.07;;;5.43;;
9374;SDS011;4727;51.202;6.344;2023-09-08T20:14:06;5.25;;;4.85;;
9374;SDS011;4727;51.202;6.344;2023-09-08T20:16:35;6.03;;;4.70;;
9374;SDS011;4727;51.202;6.344;2023-09-08T20:19:01;7.05;;;5.65;;
9374;SDS011;4727;51.202;6.344;2023-09-08T20:21:27;6.28;;;5.60;;
9374;SDS011;4727;51.202;6.344;2023-09-08T20:23:53;5.65;;;5.07;;
9374;SDS011;4727;51.202;6.344;2023-09-08T20:26:19;6.10;;;5.50;;
9374;SDS011;4727;51.202;6.344;2023-09-08T20:28:45;6.32;;;5.53;;
9374;SDS011;4727;51.202;6.344;2023-09-08T20:31:12;6.60;;;5.35;;
9374;SDS011;4727;51.202;6.344;2023-09-08T20:33:38;7.05;;;5.57;;
9374;SDS011;4727;51.202;6.344;2023-09-08T20:36:04;6.38;;;5.57;;
9374;SDS011;4727;51.202;6.344;2023-09-08T20:38:30;7.18;;;5.75;;
9374;SDS011;4727;51.202;6.344;2023-09-08T20:40:56;6.53;;;5.32;;
9374;SDS011;4727;51.202;6.344;2023-09-08T20:43:21;6.22;;;5.63;;
9374;SDS011;4727;51.202;6.344;2023-09-08T20:48:20;5.88;;;5.13;;
9374;SDS011;4727;51.202;6.344;2023-09-08T20:50:46;6.50;;;5.82;;
9374;SDS011;4727;51.202;6.344;2023-09-08T20:53:12;6.13;;;5.20;;
9374;SDS011;4727;51.202;6.344;2023-09-08T20:55:38;6.00;;;5.50;;
9374;SDS011;4727;51.202;6.344;2023-09-08T20:58:04;6.03;;;5.43;;
9374;SDS011;4727;51.202;6.344;2023-09-08T21:00:30;8.98;;;5.63;;
9374;SDS011;4727;51.202;6.344;2023-09-08T21:02:59;6.28;;;5.55;;
9374;SDS011;4727;51.202;6.344;2023-09-08T21:05:25;6.55;;;5.90;;
9374;SDS011;4727;51.202;6.344;2023-09-08T21:07:51;8.23;;;5.80;;
9374;SDS011;4727;51.202;6.344;2023-09-08T21:10:19;5.60;;;5.07;;
9374;SDS011;4727;51.202;6.344;2023-09-08T21:12:45;5.53;;;5.03;;
9374;SDS011;4727;51.202;6.344;2023-09-08T21:15:11;7.78;;;5.70;;
9374;SDS011;4727;51.202;6.344;2023-09-08T21:17:37;5.90;;;5.28;;
9374;SDS011;4727;51.202;6.344;2023-09-08T21:20:03;6.15;;;5.60;;
9374;SDS011;4727;51.202;6.344;2023-09-08T21:22:30;7.10;;;6.10;;
9374;SDS011;4727;51.202;6.344;2023-09-08T21:24:56;6.32;;;5.05;;
9374;SDS011;4727;51.202;6.344;2023-09-08T22:29:10;5.78;;;5.18;;
9374;SDS011;4727;51.202;6.344;2023-09-08T22:31:36;6.65;;;5.85;;
9374;SDS011;4727;51.202;6.344;2023-09-08T22:34:02;6.05;;;5.45;;
9374;SDS011;4727;51.202;6.344;2023-09-08T22:36:28;6.22;;;5.63;;
9374;SDS011;4727;51.202;6.344;2023-09-08T22:38:54;9.30;;;6.10;;
9374;SDS011;4727;51.202;6.344;2023-09-08T22:41:20;5.63;;;5.05;;
9374;SDS011;4727;51.202;6.344;2023-09-08T22:43:46;6.68;;;6.00;;
9374;SDS011;4727;51.202;6.344;2023-09-08T22:46:12;6.18;;;5.47;;
9374;SDS011;4727;51.202;6.344;2023-09-08T22:48:38;6.55;;;5.57;;
9374;SDS011;4727;51.202;6.344;2023-09-08T22:51:04;7.55;;;6.32;;
9374;SDS011;4727;51.202;6.344;2023-09-08T22:53:30;6.35;;;5.75;;